createdAt,value
2022-08-25T00:01:55.303Z,9.57
2022-08-25T00:04:23.930Z,12.45
2022-08-25T00:06:51.274Z,13.23
2022-08-25T00:09:20.770Z,10.75
2022-08-25T00:11:49.221Z,11.38
2022-08-25T00:14:19.875Z,13.43
2022-08-25T00:16:47.291Z,12.32
2022-08-25T00:19:18.274Z,11.30
2022-08-25T00:21:45.979Z,12.85
2022-08-25T00:24:14.635Z,12.98
2022-08-25T00:26:43.809Z,12.50
2022-08-25T00:29:11.166Z,12.00
2022-08-25T00:31:39.201Z,15.15
2022-08-25T00:34:14.490Z,11.80
2022-08-25T00:36:41.857Z,13.05
2022-08-25T00:39:10.206Z,13.60
2022-08-25T00:41:38.385Z,11.57
2022-08-25T00:44:08.252Z,12.95
2022-08-25T00:46:38.863Z,11.57
2022-08-25T00:49:24.571Z,10.68
2022-08-25T00:51:55.600Z,10.80
2022-08-25T00:54:25.701Z,11.40
2022-08-25T00:56:53.130Z,11.55
2022-08-25T00:59:22.558Z,10.40
2022-08-25T01:01:51.198Z,12.55
2022-08-25T01:04:18.306Z,12.40
2022-08-25T01:06:47.622Z,10.40
2022-08-25T01:09:14.776Z,9.52
2022-08-25T01:11:44.372Z,10.95
2022-08-25T01:14:13.409Z,9.48
2022-08-25T01:16:41.481Z,11.82
2022-08-25T01:19:09.818Z,10.15
2022-08-25T01:21:48.451Z,11.10
2022-08-25T01:24:40.960Z,9.80
2022-08-25T01:27:08.932Z,10.85
2022-08-25T01:29:36.850Z,10.77
2022-08-25T01:32:07.772Z,13.43
2022-08-25T01:34:37.281Z,10.68
2022-08-25T01:37:04.823Z,10.88
2022-08-25T01:39:38.762Z,12.15
2022-08-25T01:42:13.273Z,13.07
2022-08-25T01:44:45.378Z,11.60
2022-08-25T01:47:13.790Z,11.38
2022-08-25T01:49:40.495Z,12.25
2022-08-25T01:52:23.660Z,12.57
2022-08-25T01:54:50.282Z,11.80
2022-08-25T01:57:17.654Z,10.38
2022-08-25T01:59:44.931Z,9.88
2022-08-25T02:02:11.531Z,11.48
2022-08-25T02:04:38.562Z,11.00
2022-08-25T02:07:08.806Z,10.73
2022-08-25T02:09:36.563Z,11.70
2022-08-25T02:12:04.367Z,10.05
2022-08-25T02:14:31.012Z,10.40
2022-08-25T02:16:57.751Z,9.45
2022-08-25T02:19:25.960Z,10.20
2022-08-25T02:21:52.799Z,11.95
2022-08-25T02:24:19.584Z,10.02
2022-08-25T02:26:46.245Z,10.48
2022-08-25T02:29:12.894Z,9.98
2022-08-25T02:31:39.730Z,9.40
2022-08-25T02:34:07.146Z,10.10
2022-08-25T02:36:33.800Z,12.15
2022-08-25T02:39:00.946Z,10.48
2022-08-25T02:41:31.335Z,10.32
2022-08-25T02:43:59.509Z,11.32
2022-08-25T02:46:26.270Z,12.18
2022-08-25T02:48:53.353Z,12.73
2022-08-25T02:51:22.190Z,11.60
2022-08-25T02:53:49.050Z,12.80
2022-08-25T02:56:18.319Z,13.52
2022-08-25T02:58:45.977Z,11.02
2022-08-25T03:01:13.270Z,11.85
2022-08-25T03:03:43.513Z,12.52
2022-08-25T03:08:37.983Z,12.13
2022-08-25T03:11:05.582Z,12.45
2022-08-25T03:13:32.943Z,13.02
2022-08-25T03:16:00.905Z,9.43
2022-08-25T03:18:29.512Z,9.45
2022-08-25T03:20:56.072Z,10.98
2022-08-25T03:23:22.650Z,9.70
2022-08-25T03:26:08.027Z,9.45
2022-08-25T03:28:34.687Z,11.23
2022-08-25T03:31:01.451Z,10.27
2022-08-25T03:33:29.582Z,8.63
2022-08-25T03:35:57.902Z,12.02
2022-08-25T03:38:25.434Z,10.07
2022-08-25T03:40:52.666Z,10.80
2022-08-25T03:43:19.210Z,10.18
2022-08-25T03:45:46.431Z,11.25
2022-08-25T03:48:14.218Z,11.25
2022-08-25T03:50:50.719Z,10.35
2022-08-25T03:53:19.885Z,11.30
2022-08-25T03:55:46.626Z,11.90
2022-08-25T03:58:14.144Z,11.02
2022-08-25T04:00:40.917Z,13.82
2022-08-25T04:03:08.060Z,12.75
2022-08-25T04:05:35.316Z,11.10
2022-08-25T04:08:02.141Z,11.63
2022-08-25T04:10:29.222Z,11.68
2022-08-25T04:12:56.181Z,11.52
2022-08-25T04:15:22.823Z,11.63
2022-08-25T04:17:51.131Z,10.50
2022-08-25T04:20:18.952Z,14.38
2022-08-25T04:22:45.526Z,13.02
2022-08-25T04:25:12.883Z,15.27
2022-08-25T04:27:44.919Z,13.52
2022-08-25T04:30:12.020Z,13.80
2022-08-25T04:32:38.482Z,13.85
2022-08-25T04:35:05.490Z,12.98
2022-08-25T04:37:33.385Z,10.90
2022-08-25T04:40:00.216Z,11.52
2022-08-25T04:42:27.303Z,12.82
2022-08-25T04:44:54.558Z,12.98
2022-08-25T04:47:22.381Z,10.63
2022-08-25T04:49:48.884Z,10.48
2022-08-25T04:52:15.516Z,11.63
2022-08-25T04:54:42.503Z,13.35
2022-08-25T04:57:10.778Z,13.38
2022-08-25T04:59:37.307Z,10.48
2022-08-25T05:02:05.397Z,12.55
2022-08-25T05:04:35.213Z,11.15
2022-08-25T05:07:02.671Z,12.00
2022-08-25T05:09:29.365Z,11.60
2022-08-25T05:11:59.762Z,11.32
2022-08-25T05:14:26.839Z,14.02
2022-08-25T05:16:55.467Z,11.30
2022-08-25T05:19:23.957Z,12.70
2022-08-25T05:21:51.163Z,12.77
2022-08-25T05:24:18.098Z,12.32
2022-08-25T05:26:44.843Z,14.48
2022-08-25T05:29:11.770Z,13.20
2022-08-25T05:31:42.328Z,13.40
2022-08-25T05:34:12.080Z,14.35
2022-08-25T05:36:43.370Z,15.32
2022-08-25T05:39:10.880Z,13.32
2022-08-25T05:41:38.236Z,12.38
2022-08-25T05:44:05.021Z,13.68
2022-08-25T05:46:32.047Z,13.48
2022-08-25T05:48:59.032Z,14.15
2022-08-25T05:51:26.275Z,12.88
2022-08-25T05:53:52.943Z,14.00
2022-08-25T05:56:23.013Z,13.02
2022-08-25T05:58:50.234Z,13.27
2022-08-25T06:01:43.493Z,14.15
2022-08-25T06:04:12.112Z,11.13
2022-08-25T06:06:40.669Z,11.57
2022-08-25T06:09:09.414Z,12.00
2022-08-25T06:11:39.996Z,13.82
2022-08-25T06:14:08.205Z,11.63
2022-08-25T06:16:34.897Z,12.57
2022-08-25T06:19:01.439Z,13.13
2022-08-25T06:21:28.106Z,11.15
2022-08-25T06:23:54.635Z,13.25
2022-08-25T06:26:21.634Z,16.20
2022-08-25T06:28:51.868Z,16.15
2022-08-25T06:31:19.736Z,14.65
2022-08-25T06:33:46.716Z,20.05
2022-08-25T06:36:15.256Z,13.63
2022-08-25T06:38:41.795Z,13.88
2022-08-25T06:41:12.403Z,14.32
2022-08-25T06:43:43.766Z,11.93
2022-08-25T06:46:34.726Z,16.08
2022-08-25T06:49:05.053Z,13.48
2022-08-25T06:51:31.557Z,12.65
2022-08-25T06:53:57.988Z,14.18
2022-08-25T06:56:24.634Z,11.05
2022-08-25T06:58:53.261Z,13.57
2022-08-25T07:01:25.811Z,12.70
2022-08-25T07:03:57.326Z,14.80
2022-08-25T07:06:25.348Z,11.75
2022-08-25T07:08:51.879Z,14.27
2022-08-25T07:11:20.952Z,11.70
2022-08-25T07:13:48.042Z,13.55
2022-08-25T07:16:18.350Z,15.82
2022-08-25T07:18:45.512Z,11.27
2022-08-25T07:21:13.696Z,9.32
2022-08-25T07:23:41.854Z,11.15
2022-08-25T07:26:34.010Z,14.23
2022-08-25T07:29:03.019Z,9.15
2022-08-25T07:31:30.180Z,10.57
2022-08-25T07:34:15.368Z,10.68
2022-08-25T07:36:43.703Z,14.07
2022-08-25T07:39:10.651Z,8.55
2022-08-25T07:41:39.495Z,9.45
2022-08-25T07:44:06.757Z,10.63
2022-08-25T07:46:35.584Z,11.30
2022-08-25T07:49:02.387Z,8.18
2022-08-25T07:51:28.945Z,8.90
2022-08-25T07:53:55.506Z,10.15
2022-08-25T07:56:24.533Z,12.45
2022-08-25T07:58:51.293Z,7.93
2022-08-25T08:01:23.376Z,8.77
2022-08-25T08:03:51.633Z,7.07
2022-08-25T08:06:23.521Z,9.57
2022-08-25T08:08:54.538Z,8.95
2022-08-25T08:11:34.445Z,7.45
2022-08-25T08:14:01.950Z,10.35
2022-08-25T08:16:31.345Z,7.93
2022-08-25T08:18:59.950Z,9.52
2022-08-25T08:21:30.356Z,8.18
2022-08-25T08:23:59.015Z,9.35
2022-08-25T08:26:48.246Z,9.02
2022-08-25T08:29:15.380Z,7.35
2022-08-25T08:31:48.755Z,10.10
2022-08-25T08:34:15.850Z,9.32
2022-08-25T08:36:42.535Z,8.68
2022-08-25T08:39:12.107Z,9.60
2022-08-25T08:42:16.794Z,9.48
2022-08-25T08:44:56.065Z,9.00
2022-08-25T08:47:57.802Z,9.52
2022-08-25T08:50:54.363Z,8.50
2022-08-25T08:53:34.101Z,8.15
2022-08-25T08:56:11.708Z,7.93
2022-08-25T08:58:50.256Z,7.40
2022-08-25T09:01:26.674Z,8.90
2022-08-25T09:04:14.675Z,9.27
2022-08-25T09:06:48.155Z,8.35
2022-08-25T09:09:24.921Z,7.15
2022-08-25T09:12:09.957Z,7.57
2022-08-25T09:14:43.043Z,8.05
2022-08-25T09:17:54.513Z,8.88
2022-08-25T09:20:41.099Z,7.30
2022-08-25T09:23:20.382Z,7.18
2022-08-25T09:26:05.607Z,8.63
2022-08-25T09:28:55.399Z,9.55
2022-08-25T09:31:35.722Z,10.90
2022-08-25T09:34:05.806Z,10.40
2022-08-25T09:36:37.396Z,7.18
2022-08-25T09:39:05.967Z,6.53
2022-08-25T09:41:42.174Z,8.63
2022-08-25T09:44:31.839Z,7.50
2022-08-25T09:47:18.079Z,6.70
2022-08-25T09:49:46.014Z,8.13
2022-08-25T09:52:33.166Z,7.28
2022-08-25T09:55:05.824Z,9.15
2022-08-25T09:57:44.407Z,7.85
2022-08-25T10:00:13.242Z,6.53
2022-08-25T10:02:42.680Z,8.48
2022-08-25T10:05:35.145Z,6.90
2022-08-25T10:08:11.165Z,8.90
2022-08-25T10:10:45.997Z,8.35
2022-08-25T10:13:17.478Z,10.43
2022-08-25T10:16:05.053Z,8.05
2022-08-25T10:19:01.981Z,8.45
2022-08-25T10:21:28.528Z,11.32
2022-08-25T10:23:56.386Z,8.40
2022-08-25T10:26:49.949Z,10.40
2022-08-25T10:29:38.094Z,8.20
2022-08-25T10:32:15.677Z,6.82
2022-08-25T10:34:54.617Z,7.30
2022-08-25T10:37:28.589Z,6.72
2022-08-25T10:40:23.250Z,6.70
2022-08-25T10:43:27.291Z,7.07
2022-08-25T10:46:12.230Z,9.43
2022-08-25T10:48:57.215Z,8.93
2022-08-25T10:51:52.714Z,7.50
2022-08-25T10:54:42.404Z,6.45
2022-08-25T10:57:21.329Z,5.97
2022-08-25T11:00:13.090Z,6.53
2022-08-25T11:02:58.723Z,8.02
2022-08-25T11:05:27.970Z,7.35
2022-08-25T11:10:48.468Z,4.85
2022-08-25T11:13:24.726Z,6.57
2022-08-25T11:16:17.473Z,6.07
2022-08-25T11:18:51.535Z,4.50
2022-08-25T11:21:41.411Z,6.40
2022-08-25T11:24:18.593Z,4.40
2022-08-25T11:26:54.575Z,8.02
2022-08-25T11:31:53.725Z,6.07
2022-08-25T11:34:21.998Z,4.38
2022-08-25T11:37:01.034Z,6.32
2022-08-25T11:39:44.600Z,9.10
2022-08-25T11:42:45.849Z,6.05
2022-08-25T11:45:54.555Z,5.32
2022-08-25T11:48:27.365Z,5.88
2022-08-25T11:51:11.852Z,5.75
2022-08-25T11:53:45.012Z,5.35
2022-08-25T11:56:40.705Z,6.15
2022-08-25T11:59:08.322Z,5.97
2022-08-25T12:02:00.944Z,4.28
2022-08-25T12:04:44.147Z,6.32
2022-08-25T12:07:22.820Z,6.68
2022-08-25T12:09:53.960Z,5.70
2022-08-25T12:12:41.772Z,6.00
2022-08-25T12:15:32.538Z,7.32
2022-08-25T12:18:15.306Z,6.38
2022-08-25T12:21:02.607Z,7.15
2022-08-25T12:23:34.843Z,7.30
2022-08-25T12:26:28.692Z,6.93
2022-08-25T12:29:11.782Z,8.77
2022-08-25T12:31:57.261Z,6.55
2022-08-25T12:34:54.513Z,7.47
2022-08-25T12:37:23.955Z,4.43
2022-08-25T12:39:50.387Z,6.80
2022-08-25T12:42:30.100Z,7.57
2022-08-25T12:45:20.791Z,4.13
2022-08-25T12:47:49.951Z,4.22
2022-08-25T12:50:43.219Z,4.90
2022-08-25T12:53:15.625Z,6.47
2022-08-25T12:55:54.673Z,6.10
2022-08-25T12:58:28.547Z,6.07
2022-08-25T13:01:35.393Z,4.55
2022-08-25T13:04:14.904Z,5.53
2022-08-25T13:07:00.910Z,5.90
2022-08-25T13:09:58.723Z,7.78
2022-08-25T13:12:34.234Z,6.18
2022-08-25T13:15:01.153Z,6.47
2022-08-25T13:17:33.688Z,8.95
2022-08-25T13:20:20.416Z,5.68
2022-08-25T13:22:55.269Z,5.03
2022-08-25T13:25:32.195Z,5.60
2022-08-25T13:28:04.022Z,8.60
2022-08-25T13:30:36.535Z,6.30
2022-08-25T13:33:23.935Z,6.43
2022-08-25T13:36:13.366Z,4.85
2022-08-25T13:41:09.595Z,5.28
2022-08-25T13:43:38.518Z,6.18
2022-08-25T13:46:06.069Z,6.15
2022-08-25T13:48:39.522Z,5.32
2022-08-25T13:51:23.444Z,5.15
2022-08-25T13:53:53.449Z,5.97
2022-08-25T13:56:41.567Z,6.53
2022-08-25T13:59:41.783Z,8.00
2022-08-25T14:04:51.176Z,7.22
2022-08-25T14:07:21.314Z,6.57
2022-08-25T14:12:33.958Z,5.82
2022-08-25T14:15:10.013Z,5.93
2022-08-25T14:17:40.982Z,4.97
2022-08-25T14:20:19.865Z,5.28
2022-08-25T14:22:46.562Z,6.82
2022-08-25T14:25:13.343Z,9.38
2022-08-25T14:28:05.354Z,5.57
2022-08-25T14:30:35.358Z,4.93
2022-08-25T14:33:04.476Z,5.38
2022-08-25T14:35:31.479Z,5.20
2022-08-25T14:37:58.671Z,5.70
2022-08-25T14:40:25.792Z,5.15
2022-08-25T14:42:52.358Z,4.78
2022-08-25T14:45:19.329Z,4.28
2022-08-25T14:47:49.795Z,6.05
2022-08-25T14:50:20.987Z,6.20
2022-08-25T14:52:48.262Z,6.95
2022-08-25T14:55:30.785Z,3.83
2022-08-25T14:58:00.268Z,6.82
2022-08-25T15:00:27.953Z,5.88
2022-08-25T15:02:54.852Z,7.63
2022-08-25T15:05:28.420Z,6.47
2022-08-25T15:08:33.420Z,5.45
2022-08-25T15:11:00.502Z,6.25
2022-08-25T15:13:27.547Z,5.90
2022-08-25T15:15:55.293Z,8.45
2022-08-25T15:18:28.011Z,5.03
2022-08-25T15:20:54.577Z,6.22
2022-08-25T15:23:21.433Z,5.30
2022-08-25T15:25:52.734Z,7.43
2022-08-25T15:28:22.290Z,7.07
2022-08-25T15:30:49.891Z,6.25
2022-08-25T15:33:17.393Z,4.65
2022-08-25T15:35:43.938Z,6.32
2022-08-25T15:38:11.988Z,7.35
2022-08-25T15:40:39.674Z,5.28
2022-08-25T15:43:06.954Z,6.35
2022-08-25T15:45:36.115Z,5.45
2022-08-25T15:48:09.573Z,6.70
2022-08-25T15:50:36.921Z,6.90
2022-08-25T15:53:07.078Z,6.55
2022-08-25T15:55:39.116Z,6.30
2022-08-25T15:58:06.874Z,6.07
2022-08-25T16:00:35.349Z,6.90
2022-08-25T16:03:02.125Z,7.60
2022-08-25T16:05:29.461Z,6.45
2022-08-25T16:07:56.771Z,3.67
2022-08-25T16:10:25.243Z,6.10
2022-08-25T16:12:51.743Z,4.82
2022-08-25T16:15:18.324Z,4.78
2022-08-25T16:17:51.217Z,7.93
2022-08-25T16:20:18.282Z,6.45
2022-08-25T16:22:45.121Z,8.93
2022-08-25T16:25:11.681Z,6.28
2022-08-25T16:27:39.235Z,4.43
2022-08-25T16:30:08.199Z,7.45
2022-08-25T16:32:35.012Z,9.07
2022-08-25T16:35:02.865Z,5.97
2022-08-25T16:37:29.891Z,6.03
2022-08-25T16:39:57.075Z,5.78
2022-08-25T16:42:24.301Z,6.82
2022-08-25T16:44:53.940Z,5.63
2022-08-25T16:47:25.137Z,6.55
2022-08-25T16:49:54.070Z,5.22
2022-08-25T16:52:40.616Z,5.53
2022-08-25T16:55:14.340Z,6.90
2022-08-25T16:57:43.841Z,6.25
2022-08-25T17:00:13.822Z,7.20
2022-08-25T17:02:42.105Z,8.10
2022-08-25T17:05:10.701Z,7.07
2022-08-25T17:07:37.732Z,6.82
2022-08-25T17:10:05.800Z,6.15
2022-08-25T17:12:32.772Z,8.68
2022-08-25T17:14:59.276Z,8.15
2022-08-25T17:17:27.099Z,6.68
2022-08-25T17:19:54.866Z,6.70
2022-08-25T17:22:22.347Z,6.53
2022-08-25T17:24:59.274Z,5.60
2022-08-25T17:27:28.079Z,7.03
2022-08-25T17:29:55.396Z,11.00
2022-08-25T17:32:28.693Z,8.32
2022-08-25T17:34:57.434Z,7.13
2022-08-25T17:37:24.531Z,10.27
2022-08-25T17:40:02.509Z,11.70
2022-08-25T17:42:30.320Z,8.95
2022-08-25T17:44:57.876Z,12.02
2022-08-25T17:47:24.478Z,10.60
2022-08-25T17:49:50.918Z,10.07
2022-08-25T17:52:17.453Z,13.75
2022-08-25T17:54:43.958Z,10.05
2022-08-25T17:57:10.780Z,10.35
2022-08-25T17:59:40.451Z,11.80
2022-08-25T18:02:08.182Z,9.98
2022-08-25T18:04:37.983Z,11.43
2022-08-25T18:07:07.663Z,8.77
2022-08-25T18:09:34.393Z,9.60
2022-08-25T18:12:00.816Z,9.57
2022-08-25T18:14:27.341Z,9.20
2022-08-25T18:16:54.076Z,9.85
2022-08-25T18:19:20.917Z,11.15
2022-08-25T18:21:47.592Z,10.38
2022-08-25T18:24:14.105Z,12.65
2022-08-25T18:26:40.819Z,12.27
2022-08-25T18:29:07.361Z,11.75
2022-08-25T18:31:34.206Z,11.77
2022-08-25T18:34:04.998Z,12.30
2022-08-25T18:36:32.408Z,12.57
2022-08-25T18:39:24.900Z,14.00
2022-08-25T18:41:51.741Z,13.80
2022-08-25T18:44:18.391Z,13.35
2022-08-25T18:46:45.578Z,10.88
2022-08-25T18:49:15.792Z,13.90
2022-08-25T18:51:44.706Z,16.38
2022-08-25T18:54:23.343Z,11.43
2022-08-25T18:56:52.334Z,10.93
2022-08-25T18:59:19.583Z,13.38
2022-08-25T19:01:46.191Z,12.93
2022-08-25T19:04:14.767Z,11.80
2022-08-25T19:06:43.898Z,13.02
2022-08-25T19:09:10.774Z,13.75
2022-08-25T19:11:38.119Z,19.85
2022-08-25T19:14:08.072Z,17.77
2022-08-25T19:16:42.415Z,18.13
2022-08-25T19:19:13.163Z,22.50
2022-08-25T19:21:41.968Z,20.35
2022-08-25T19:24:10.970Z,26.55
2022-08-25T19:26:38.543Z,22.15
2022-08-25T19:29:09.334Z,27.05
2022-08-25T19:31:36.714Z,28.67
2022-08-25T19:34:04.691Z,26.15
2022-08-25T19:36:31.430Z,27.73
2022-08-25T19:39:01.245Z,34.58
2022-08-25T19:41:31.133Z,30.95
2022-08-25T19:43:58.547Z,35.75
2022-08-25T19:46:32.024Z,35.35
2022-08-25T19:49:07.211Z,32.97
2022-08-25T19:51:39.638Z,37.17
2022-08-25T19:54:08.944Z,38.78
2022-08-25T19:56:44.019Z,37.65
2022-08-25T19:59:40.747Z,41.03
2022-08-25T20:02:11.203Z,47.35
2022-08-25T20:04:37.744Z,43.50
2022-08-25T20:07:04.622Z,41.63
2022-08-25T20:09:39.395Z,44.05
2022-08-25T20:12:10.263Z,42.25
2022-08-25T20:14:37.066Z,42.92
2022-08-25T20:17:14.657Z,44.08
2022-08-25T20:19:54.067Z,45.47
2022-08-25T20:22:25.847Z,39.83
2022-08-25T20:24:55.757Z,42.67
2022-08-25T20:27:31.311Z,40.85
2022-08-25T20:30:02.618Z,36.58
2022-08-25T20:32:31.356Z,35.03
2022-08-25T20:34:57.839Z,34.13
2022-08-25T20:37:25.789Z,33.15
2022-08-25T20:39:52.717Z,31.50
2022-08-25T20:42:19.327Z,29.65
2022-08-25T20:44:47.058Z,26.30
2022-08-25T20:47:15.669Z,28.42
2022-08-25T20:49:44.528Z,27.35
2022-08-25T20:52:11.975Z,25.92
2022-08-25T20:54:40.347Z,25.73
2022-08-25T20:57:08.123Z,23.88
2022-08-25T20:59:34.687Z,27.88
2022-08-25T21:02:01.523Z,26.75
2022-08-25T21:04:29.805Z,24.20
2022-08-25T21:07:01.108Z,27.58
2022-08-25T21:09:28.549Z,24.90
2022-08-25T21:11:56.867Z,29.65
2022-08-25T21:14:24.278Z,24.85
2022-08-25T21:16:52.770Z,24.85
2022-08-25T21:19:26.783Z,26.08
2022-08-25T21:21:59.592Z,26.73
2022-08-25T21:24:28.088Z,29.55
2022-08-25T21:26:57.926Z,26.60
2022-08-25T21:29:28.670Z,26.95
2022-08-25T21:31:56.016Z,28.15
2022-08-25T21:34:22.442Z,27.13
2022-08-25T21:36:50.763Z,23.70
2022-08-25T21:39:17.272Z,21.50
2022-08-25T21:41:45.614Z,23.33
2022-08-25T21:44:12.987Z,24.83
2022-08-25T21:46:53.806Z,25.95
2022-08-25T21:49:21.775Z,18.73
2022-08-25T21:51:51.006Z,20.88
2022-08-25T21:54:26.146Z,19.20
2022-08-25T21:56:55.935Z,20.02
2022-08-25T21:59:25.191Z,19.58
2022-08-25T22:01:57.470Z,16.75
2022-08-25T22:04:24.501Z,15.77
2022-08-25T22:06:54.998Z,23.73
2022-08-25T22:09:24.648Z,15.82
2022-08-25T22:11:52.295Z,16.30
2022-08-25T22:14:23.710Z,15.57
2022-08-25T22:16:51.985Z,19.55
2022-08-25T22:19:18.568Z,15.68
2022-08-25T22:21:45.654Z,15.55
2022-08-25T22:24:12.261Z,16.15
2022-08-25T22:26:39.907Z,16.38
2022-08-25T22:29:06.644Z,14.57
2022-08-25T22:31:34.595Z,15.40
2022-08-25T22:34:01.285Z,12.20
2022-08-25T22:36:34.981Z,13.07
2022-08-25T22:39:01.814Z,11.63
2022-08-25T22:41:31.472Z,14.38
2022-08-25T22:44:00.107Z,11.73
2022-08-25T22:46:35.670Z,14.07
2022-08-25T22:49:02.197Z,14.43
2022-08-25T22:51:32.509Z,12.25
2022-08-25T22:54:00.592Z,12.57
2022-08-25T22:56:34.324Z,15.13
2022-08-25T22:59:06.585Z,10.18
2022-08-25T23:01:33.540Z,11.98
2022-08-25T23:04:04.947Z,15.85
2022-08-25T23:06:34.431Z,15.18
2022-08-25T23:09:01.470Z,12.18
2022-08-25T23:11:28.848Z,9.18
2022-08-25T23:13:57.265Z,9.77
2022-08-25T23:16:25.251Z,8.68
2022-08-25T23:18:53.025Z,8.93
2022-08-25T23:21:41.221Z,10.02
2022-08-25T23:24:10.989Z,9.60
2022-08-25T23:26:42.490Z,10.27
2022-08-25T23:29:18.821Z,10.07
2022-08-25T23:31:49.635Z,7.30
2022-08-25T23:34:16.494Z,9.27
2022-08-25T23:36:44.653Z,7.38
2022-08-25T23:39:11.321Z,7.63
2022-08-25T23:41:38.368Z,9.00
2022-08-25T23:44:09.350Z,7.93
2022-08-25T23:46:38.308Z,12.25
2022-08-25T23:49:08.455Z,9.35
2022-08-25T23:51:38.103Z,9.38
2022-08-25T23:54:09.296Z,9.18
2022-08-25T23:56:44.783Z,10.60
2022-08-25T23:59:24.562Z,10.98
